createdAt,value
2023-04-20T00:01:21.409Z,32.52
2023-04-20T00:03:49.510Z,32.42
2023-04-20T00:06:18.201Z,32.40
2023-04-20T00:08:47.516Z,32.47
2023-04-20T00:11:15.787Z,32.42
2023-04-20T00:13:43.484Z,32.72
2023-04-20T00:16:11.221Z,32.30
2023-04-20T00:18:39.151Z,32.40
2023-04-20T00:21:06.980Z,32.51
2023-04-20T00:23:34.820Z,32.59
2023-04-20T00:26:02.535Z,32.57
2023-04-20T00:28:30.406Z,32.11
2023-04-20T00:30:59.844Z,32.16
2023-04-20T00:33:27.561Z,32.34
2023-04-20T00:35:56.783Z,32.04
2023-04-20T00:38:24.720Z,31.95
2023-04-20T00:40:54.399Z,31.85
2023-04-20T00:43:23.242Z,32.08
2023-04-20T00:45:55.014Z,32.11
2023-04-20T00:48:23.736Z,31.84
2023-04-20T00:50:54.149Z,32.20
2023-04-20T00:53:28.532Z,31.84
2023-04-20T00:55:57.109Z,32.05
2023-04-20T00:58:25.129Z,31.71
2023-04-20T01:00:52.884Z,32.14
2023-04-20T01:03:21.084Z,31.79
2023-04-20T01:05:51.891Z,31.61
2023-04-20T01:08:26.655Z,31.72
2023-04-20T01:10:56.502Z,31.91
2023-04-20T01:13:24.807Z,32.01
2023-04-20T01:15:52.559Z,32.08
2023-04-20T01:18:20.246Z,31.83
2023-04-20T01:20:51.918Z,32.04
2023-04-20T01:23:22.358Z,31.81
2023-04-20T01:25:50.214Z,31.89
2023-04-20T01:28:18.174Z,31.90
2023-04-20T01:30:46.395Z,31.91
2023-04-20T01:33:14.254Z,31.49
2023-04-20T01:35:51.617Z,32.06
2023-04-20T01:38:24.213Z,32.00
2023-04-20T01:41:01.058Z,31.94
2023-04-20T01:43:35.606Z,32.19
2023-04-20T01:46:08.966Z,32.11
2023-04-20T01:48:40.121Z,31.93
2023-04-20T01:51:09.819Z,31.97
2023-04-20T01:53:37.535Z,32.22
2023-04-20T01:56:05.577Z,31.53
2023-04-20T01:58:33.621Z,32.08
2023-04-20T02:01:02.897Z,32.01
2023-04-20T02:03:31.130Z,31.99
2023-04-20T02:05:59.337Z,31.81
2023-04-20T02:08:30.851Z,32.21
2023-04-20T02:10:58.845Z,32.09
2023-04-20T02:13:27.234Z,32.16
2023-04-20T02:15:55.808Z,32.30
2023-04-20T02:18:24.600Z,32.25
2023-04-20T02:20:52.788Z,31.78
2023-04-20T02:23:20.566Z,32.12
2023-04-20T02:25:48.308Z,31.83
2023-04-20T02:28:16.111Z,31.82
2023-04-20T02:30:44.323Z,31.94
2023-04-20T02:33:12.923Z,31.95
2023-04-20T02:35:40.642Z,31.94
2023-04-20T02:38:08.615Z,31.75
2023-04-20T02:40:39.513Z,31.99
2023-04-20T02:43:07.362Z,31.57
2023-04-20T02:45:35.931Z,31.49
2023-04-20T02:48:04.101Z,31.37
2023-04-20T02:50:35.329Z,31.42
2023-04-20T02:53:09.877Z,31.49
2023-04-20T02:55:38.217Z,31.52
2023-04-20T02:58:17.839Z,31.32
2023-04-20T03:01:05.860Z,31.90
2023-04-20T03:03:34.623Z,31.73
2023-04-20T03:06:02.479Z,31.44
2023-04-20T03:08:30.405Z,31.75
2023-04-20T03:11:03.072Z,31.62
2023-04-20T03:13:30.907Z,31.71
2023-04-20T03:16:02.373Z,31.55
2023-04-20T03:18:37.545Z,31.56
2023-04-20T03:21:05.604Z,31.28
2023-04-20T03:23:33.632Z,31.28
2023-04-20T03:26:03.239Z,31.70
2023-04-20T03:28:44.182Z,31.26
2023-04-20T03:31:15.565Z,31.56
2023-04-20T03:33:45.916Z,31.41
2023-04-20T03:36:13.733Z,31.42
2023-04-20T03:38:42.376Z,31.15
2023-04-20T03:41:11.631Z,31.45
2023-04-20T03:43:39.751Z,31.14
2023-04-20T03:46:07.920Z,31.47
2023-04-20T03:48:36.302Z,31.45
2023-04-20T03:51:04.632Z,31.35
2023-04-20T03:53:32.463Z,31.02
2023-04-20T03:56:02.620Z,30.91
2023-04-20T03:58:31.249Z,31.37
2023-04-20T04:01:19.305Z,30.80
2023-04-20T04:03:49.480Z,30.98
2023-04-20T04:06:18.379Z,31.08
2023-04-20T04:08:46.242Z,31.04
2023-04-20T04:11:14.343Z,31.19
2023-04-20T04:13:42.265Z,31.14
2023-04-20T04:16:11.788Z,31.03
2023-04-20T04:18:44.046Z,30.84
2023-04-20T04:21:13.455Z,31.09
2023-04-20T04:23:45.266Z,30.87
2023-04-20T04:26:48.850Z,31.16
2023-04-20T04:29:17.759Z,31.09
2023-04-20T04:31:45.776Z,30.68
2023-04-20T04:34:19.073Z,30.53
2023-04-20T04:36:50.872Z,30.62
2023-04-20T04:39:24.152Z,31.20
2023-04-20T04:42:04.970Z,30.94
2023-04-20T04:44:41.853Z,30.86
2023-04-20T04:47:14.612Z,31.29
2023-04-20T04:49:42.733Z,30.90
2023-04-20T04:52:11.555Z,30.78
2023-04-20T04:54:40.692Z,30.56
2023-04-20T04:57:08.599Z,30.50
2023-04-20T04:59:36.278Z,30.36
2023-04-20T05:02:05.664Z,30.29
2023-04-20T05:04:33.732Z,30.30
2023-04-20T05:07:01.799Z,30.76
2023-04-20T05:09:33.693Z,30.83
2023-04-20T05:12:01.737Z,31.07
2023-04-20T05:14:31.423Z,31.29
2023-04-20T05:17:03.609Z,31.16
2023-04-20T05:19:32.352Z,31.26
2023-04-20T05:22:01.739Z,31.84
2023-04-20T05:24:29.614Z,31.05
2023-04-20T05:26:57.428Z,31.51
2023-04-20T05:29:28.701Z,31.70
2023-04-20T05:31:59.079Z,31.38
2023-04-20T05:34:27.146Z,31.33
2023-04-20T05:36:55.158Z,32.00
2023-04-20T05:39:24.623Z,31.66
2023-04-20T05:41:52.737Z,31.88
2023-04-20T05:44:20.845Z,31.53
2023-04-20T05:46:48.704Z,32.07
2023-04-20T05:49:17.031Z,32.16
2023-04-20T05:51:45.559Z,31.35
2023-04-20T05:54:13.550Z,31.04
2023-04-20T05:56:41.489Z,31.06
2023-04-20T05:59:09.571Z,30.86
2023-04-20T06:01:37.416Z,30.55
2023-04-20T06:04:05.552Z,30.31
2023-04-20T06:06:33.509Z,29.83
2023-04-20T06:09:03.912Z,30.08
2023-04-20T06:11:31.815Z,30.22
2023-04-20T06:14:02.736Z,30.31
2023-04-20T06:16:30.664Z,30.33
2023-04-20T06:18:58.778Z,30.04
2023-04-20T06:21:27.371Z,30.42
2023-04-20T06:23:55.685Z,30.15
2023-04-20T06:26:28.417Z,31.31
2023-04-20T06:28:56.905Z,31.77
2023-04-20T06:31:24.760Z,31.60
2023-04-20T06:33:52.582Z,31.35
2023-04-20T06:36:20.314Z,31.47
2023-04-20T06:38:48.188Z,30.90
2023-04-20T06:41:16.566Z,31.10
2023-04-20T06:43:46.161Z,30.95
2023-04-20T06:46:14.076Z,31.04
2023-04-20T06:48:41.900Z,31.24
2023-04-20T06:51:09.817Z,31.33
2023-04-20T06:53:37.512Z,31.41
2023-04-20T06:56:05.802Z,30.97
2023-04-20T06:58:33.557Z,31.10
2023-04-20T07:01:02.988Z,30.44
2023-04-20T07:03:31.489Z,30.33
2023-04-20T07:05:59.598Z,30.44
2023-04-20T07:08:27.476Z,30.07
2023-04-20T07:10:55.206Z,30.36
2023-04-20T07:13:23.303Z,30.87
2023-04-20T07:15:51.696Z,30.85
2023-04-20T07:18:21.018Z,30.32
2023-04-20T07:20:48.770Z,30.10
2023-04-20T07:23:16.597Z,29.81
2023-04-20T07:25:45.589Z,29.84
2023-04-20T07:28:13.665Z,29.64
2023-04-20T07:30:41.561Z,30.63
2023-04-20T07:33:11.473Z,30.77
2023-04-20T07:35:39.913Z,30.41
2023-04-20T07:38:07.730Z,30.37
2023-04-20T07:40:35.603Z,29.89
2023-04-20T07:43:03.301Z,29.43
2023-04-20T07:45:31.574Z,29.15
2023-04-20T07:48:05.701Z,29.27
2023-04-20T07:50:33.592Z,29.42
2023-04-20T07:53:01.240Z,29.22
2023-04-20T07:55:33.129Z,29.21
2023-04-20T07:58:01.076Z,28.97
2023-04-20T08:00:29.000Z,29.55
2023-04-20T08:02:57.386Z,29.55
2023-04-20T08:05:27.500Z,29.23
2023-04-20T08:07:55.435Z,29.50
2023-04-20T08:10:23.270Z,29.81
2023-04-20T08:12:52.704Z,29.61
2023-04-20T08:15:21.089Z,29.72
2023-04-20T08:17:49.094Z,29.85
2023-04-20T08:20:16.930Z,29.78
2023-04-20T08:22:44.707Z,29.84
2023-04-20T08:25:12.480Z,29.87
2023-04-20T08:27:40.231Z,30.44
2023-04-20T08:30:09.074Z,30.29
2023-04-20T08:32:38.115Z,30.95
2023-04-20T08:35:06.015Z,30.77
2023-04-20T08:37:34.395Z,30.88
2023-04-20T08:40:02.405Z,30.14
2023-04-20T08:42:31.818Z,30.42
2023-04-20T08:45:00.085Z,30.32
2023-04-20T08:47:29.213Z,30.82
2023-04-20T08:49:58.929Z,31.14
2023-04-20T08:52:27.230Z,31.04
2023-04-20T08:54:57.443Z,31.10
2023-04-20T08:57:26.493Z,30.85
2023-04-20T08:59:54.707Z,31.00
2023-04-20T09:02:23.015Z,31.42
2023-04-20T09:05:02.465Z,31.23
2023-04-20T09:10:15.183Z,31.59
2023-04-20T09:12:43.373Z,31.84
2023-04-20T09:15:11.508Z,32.21
2023-04-20T09:17:41.020Z,31.90
2023-04-20T09:20:11.557Z,32.41
2023-04-20T09:22:41.583Z,32.29
2023-04-20T09:25:19.445Z,33.02
2023-04-20T09:28:02.384Z,33.26
2023-04-20T09:30:43.479Z,33.61
2023-04-20T09:33:13.496Z,33.51
2023-04-20T09:35:42.748Z,33.55
2023-04-20T09:38:17.336Z,34.15
2023-04-20T09:40:45.342Z,34.06
2023-04-20T09:43:25.028Z,34.11
2023-04-20T09:45:52.852Z,34.49
2023-04-20T09:48:21.998Z,34.41
2023-04-20T09:50:51.427Z,34.50
2023-04-20T09:53:20.434Z,35.24
2023-04-20T09:55:50.495Z,34.82
2023-04-20T09:58:20.729Z,35.18
2023-04-20T10:00:49.410Z,35.17
2023-04-20T10:03:22.301Z,34.93
2023-04-20T10:05:52.348Z,34.84
2023-04-20T10:08:22.266Z,34.45
2023-04-20T10:10:51.658Z,34.58
2023-04-20T10:13:22.085Z,34.52
2023-04-20T10:15:49.922Z,34.33
2023-04-20T10:18:23.791Z,34.51
2023-04-20T10:21:03.731Z,34.64
2023-04-20T10:23:34.145Z,34.66
2023-04-20T10:26:04.123Z,34.76
2023-04-20T10:28:40.868Z,35.15
2023-04-20T10:31:13.476Z,34.84
2023-04-20T10:33:58.676Z,35.17
2023-04-20T10:36:36.999Z,35.02
2023-04-20T10:39:19.777Z,35.21
2023-04-20T10:42:03.961Z,34.88
2023-04-20T10:44:33.250Z,34.62
2023-04-20T10:47:01.518Z,34.84
2023-04-20T10:49:31.256Z,34.53
2023-04-20T10:51:59.105Z,34.54
2023-04-20T10:54:27.242Z,34.65
2023-04-20T10:56:55.027Z,34.50
2023-04-20T10:59:24.957Z,34.60
2023-04-20T11:01:54.159Z,34.83
2023-04-20T11:04:32.939Z,34.67
2023-04-20T11:07:09.582Z,34.83
2023-04-20T11:09:40.699Z,34.70
2023-04-20T11:12:12.041Z,34.53
2023-04-20T11:15:00.777Z,35.20
2023-04-20T11:17:36.085Z,34.50
2023-04-20T11:20:14.021Z,34.28
2023-04-20T11:22:43.200Z,34.07
2023-04-20T11:25:13.606Z,33.97
2023-04-20T11:27:42.400Z,33.87
2023-04-20T11:30:10.556Z,33.90
2023-04-20T11:32:39.263Z,33.97
2023-04-20T11:35:11.017Z,33.97
2023-04-20T11:37:51.684Z,34.14
2023-04-20T11:40:20.474Z,34.15
2023-04-20T11:42:48.195Z,34.44
2023-04-20T11:45:16.213Z,34.62
2023-04-20T11:47:45.824Z,35.00
2023-04-20T11:50:15.053Z,34.96
2023-04-20T11:52:42.872Z,35.12
2023-04-20T11:55:11.577Z,35.17
2023-04-20T11:57:39.529Z,34.83
2023-04-20T12:00:08.231Z,35.03
2023-04-20T12:02:41.996Z,34.45
2023-04-20T12:07:38.234Z,33.56
2023-04-20T12:10:08.087Z,33.45
2023-04-20T12:12:37.374Z,33.13
2023-04-20T12:15:06.048Z,33.24
2023-04-20T12:17:33.988Z,33.62
2023-04-20T12:20:08.966Z,33.27
2023-04-20T12:22:36.709Z,33.91
2023-04-20T12:25:05.516Z,33.95
2023-04-20T12:27:33.419Z,33.67
2023-04-20T12:30:01.371Z,33.74
2023-04-20T12:32:30.914Z,33.95
2023-04-20T12:34:59.351Z,33.90
2023-04-20T12:37:27.429Z,33.95
2023-04-20T12:39:55.112Z,33.91
2023-04-20T12:42:22.824Z,34.24
2023-04-20T12:44:54.391Z,34.52
2023-04-20T12:47:22.517Z,34.60
2023-04-20T12:49:50.558Z,34.55
2023-04-20T12:52:18.876Z,34.84
2023-04-20T12:54:46.640Z,35.16
2023-04-20T12:57:14.613Z,35.72
2023-04-20T12:59:43.093Z,35.70
2023-04-20T13:02:11.549Z,35.58
2023-04-20T13:04:39.436Z,35.70
2023-04-20T13:07:07.490Z,35.45
2023-04-20T13:09:35.349Z,35.75
2023-04-20T13:12:03.837Z,35.90
2023-04-20T13:14:32.434Z,36.47
2023-04-20T13:17:02.160Z,36.84
2023-04-20T13:19:31.126Z,37.15
2023-04-20T13:21:59.326Z,36.97
2023-04-20T13:24:27.221Z,37.01
2023-04-20T13:26:56.882Z,37.24
2023-04-20T13:29:27.797Z,37.72
2023-04-20T13:31:55.606Z,37.83
2023-04-20T13:34:23.450Z,38.01
2023-04-20T13:36:51.891Z,38.45
2023-04-20T13:39:20.910Z,37.77
2023-04-20T13:41:52.139Z,38.35
2023-04-20T13:44:20.280Z,38.44
2023-04-20T13:46:48.552Z,39.69
2023-04-20T13:49:17.118Z,39.77
2023-04-20T13:51:44.943Z,39.59
2023-04-20T13:54:12.616Z,39.19
2023-04-20T13:56:40.350Z,39.49
2023-04-20T13:59:08.119Z,39.19
2023-04-20T14:01:36.154Z,39.26
2023-04-20T14:04:05.015Z,39.23
2023-04-20T14:06:32.982Z,39.32
2023-04-20T14:09:01.637Z,39.32
2023-04-20T14:11:29.767Z,39.25
2023-04-20T14:13:57.713Z,39.33
2023-04-20T14:16:25.932Z,40.16
2023-04-20T14:18:53.885Z,40.87
2023-04-20T14:21:22.436Z,39.75
2023-04-20T14:23:53.763Z,39.90
2023-04-20T14:26:21.701Z,40.19
2023-04-20T14:28:49.507Z,39.59
2023-04-20T14:31:17.343Z,39.57
2023-04-20T14:33:45.109Z,39.63
2023-04-20T14:36:13.413Z,39.68
2023-04-20T14:38:41.210Z,39.77
2023-04-20T14:41:08.867Z,39.71
2023-04-20T14:43:37.501Z,39.50
2023-04-20T14:46:06.244Z,38.95
2023-04-20T14:48:38.229Z,39.52
2023-04-20T14:51:06.482Z,39.39
2023-04-20T14:53:34.217Z,39.81
2023-04-20T14:56:02.960Z,39.73
2023-04-20T14:58:31.793Z,39.43
2023-04-20T15:00:59.403Z,39.57
2023-04-20T15:03:27.626Z,39.99
2023-04-20T15:06:01.760Z,39.96
2023-04-20T15:08:29.471Z,40.21
2023-04-20T15:10:57.500Z,40.54
2023-04-20T15:13:27.204Z,41.08
2023-04-20T15:18:24.013Z,40.82
2023-04-20T15:20:52.841Z,40.17
2023-04-20T15:23:20.909Z,40.04
2023-04-20T15:25:48.727Z,39.56
2023-04-20T15:28:16.814Z,39.28
2023-04-20T15:30:45.430Z,39.19
2023-04-20T15:33:13.230Z,39.12
2023-04-20T15:35:41.441Z,39.09
2023-04-20T15:38:09.616Z,39.67
2023-04-20T15:40:38.893Z,39.57
2023-04-20T15:43:06.964Z,40.13
2023-04-20T15:45:35.063Z,39.81
2023-04-20T15:48:03.255Z,39.92
2023-04-20T15:50:31.354Z,39.76
2023-04-20T15:52:59.087Z,39.32
2023-04-20T15:55:27.386Z,39.69
2023-04-20T15:57:58.271Z,39.28
2023-04-20T16:00:27.338Z,39.29
2023-04-20T16:02:55.463Z,39.58
2023-04-20T16:05:42.201Z,39.96
2023-04-20T16:08:28.607Z,40.34
2023-04-20T16:11:14.815Z,40.37
2023-04-20T16:13:42.833Z,40.25
2023-04-20T16:16:10.746Z,40.59
2023-04-20T16:18:38.948Z,41.06
2023-04-20T16:21:06.830Z,41.12
2023-04-20T16:23:34.697Z,41.77
2023-04-20T16:26:05.454Z,42.77
2023-04-20T16:28:33.220Z,42.79
2023-04-20T16:31:01.206Z,42.45
2023-04-20T16:33:30.514Z,42.98
2023-04-20T16:35:58.417Z,43.39
2023-04-20T16:38:26.366Z,43.24
2023-04-20T16:40:54.374Z,43.48
2023-04-20T16:43:22.227Z,43.23
2023-04-20T16:45:50.155Z,43.64
2023-04-20T16:48:18.070Z,43.74
2023-04-20T16:50:47.131Z,43.75
2023-04-20T16:53:15.211Z,45.85
2023-04-20T16:55:43.280Z,44.95
2023-04-20T16:58:11.229Z,44.55
2023-04-20T17:00:39.167Z,44.76
2023-04-20T17:03:10.468Z,45.14
2023-04-20T17:05:41.672Z,45.29
2023-04-20T17:08:09.921Z,47.54
2023-04-20T17:10:38.618Z,51.53
2023-04-20T17:13:06.590Z,48.01
2023-04-20T17:15:34.481Z,47.87
2023-04-20T17:18:02.532Z,51.35
2023-04-20T17:20:30.547Z,48.30
2023-04-20T17:22:58.272Z,47.49
2023-04-20T17:25:26.346Z,47.90
2023-04-20T17:27:54.173Z,47.82
2023-04-20T17:30:22.961Z,48.13
2023-04-20T17:32:50.924Z,48.18
2023-04-20T17:35:18.868Z,47.71
2023-04-20T17:37:46.599Z,48.73
2023-04-20T17:40:14.510Z,48.74
2023-04-20T17:42:42.248Z,47.92
2023-04-20T17:45:10.473Z,48.24
2023-04-20T17:47:38.660Z,49.05
2023-04-20T17:50:07.134Z,48.34
2023-04-20T17:52:35.958Z,48.33
2023-04-20T17:55:06.578Z,49.04
2023-04-20T17:57:34.815Z,49.00
2023-04-20T18:00:03.911Z,49.01
2023-04-20T18:02:40.630Z,48.91
2023-04-20T18:05:08.970Z,49.64
2023-04-20T18:07:36.806Z,49.07
2023-04-20T18:10:05.059Z,48.57
2023-04-20T18:12:33.784Z,52.00
2023-04-20T18:15:07.641Z,52.69
2023-04-20T18:17:36.804Z,51.06
2023-04-20T18:20:09.492Z,50.36
2023-04-20T18:22:38.628Z,52.42
2023-04-20T18:25:06.670Z,53.06
2023-04-20T18:27:34.896Z,51.92
2023-04-20T18:30:02.919Z,52.25
2023-04-20T18:32:33.361Z,51.78
2023-04-20T18:35:01.194Z,51.55
2023-04-20T18:37:28.930Z,52.33
2023-04-20T18:39:58.229Z,51.73
2023-04-20T18:42:28.297Z,51.30
2023-04-20T18:44:56.294Z,51.18
2023-04-20T18:47:27.378Z,51.36
2023-04-20T18:49:55.121Z,51.83
2023-04-20T18:52:23.485Z,51.87
2023-04-20T18:54:52.125Z,51.95
2023-04-20T18:57:24.461Z,51.33
2023-04-20T18:59:53.569Z,51.64
2023-04-20T19:02:21.997Z,51.77
2023-04-20T19:04:51.014Z,51.83
2023-04-20T19:07:19.278Z,51.72
2023-04-20T19:09:48.747Z,52.32
2023-04-20T19:12:16.612Z,53.04
2023-04-20T19:14:45.403Z,51.92
2023-04-20T19:17:14.380Z,52.10
2023-04-20T19:19:41.993Z,51.76
2023-04-20T19:22:10.108Z,52.06
2023-04-20T19:24:38.076Z,52.75
2023-04-20T19:27:06.018Z,52.36
2023-04-20T19:29:35.535Z,52.09
2023-04-20T19:32:03.924Z,52.07
2023-04-20T19:34:34.212Z,52.31
2023-04-20T19:37:02.160Z,52.61
2023-04-20T19:39:30.911Z,53.24
2023-04-20T19:41:58.773Z,52.71
2023-04-20T19:44:28.257Z,53.08
2023-04-20T19:46:56.170Z,53.03
2023-04-20T19:49:23.980Z,52.50
2023-04-20T19:51:51.765Z,52.07
2023-04-20T19:54:19.909Z,52.83
2023-04-20T19:56:47.683Z,52.29
2023-04-20T19:59:15.987Z,52.14
2023-04-20T20:01:44.129Z,52.49
2023-04-20T20:04:12.124Z,52.58
2023-04-20T20:06:40.540Z,52.31
2023-04-20T20:09:08.701Z,52.58
2023-04-20T20:11:36.562Z,52.77
2023-04-20T20:14:05.003Z,52.67
2023-04-20T20:16:32.958Z,52.96
2023-04-20T20:19:00.807Z,52.24
2023-04-20T20:21:28.811Z,52.64
2023-04-20T20:23:59.521Z,52.70
2023-04-20T20:26:27.746Z,52.90
2023-04-20T20:28:55.552Z,52.63
2023-04-20T20:31:24.653Z,52.83
2023-04-20T20:33:52.761Z,53.05
2023-04-20T20:36:21.696Z,53.01
2023-04-20T20:38:51.115Z,52.69
2023-04-20T20:41:22.142Z,53.28
2023-04-20T20:43:50.547Z,53.22
2023-04-20T20:46:20.517Z,53.17
2023-04-20T20:48:48.331Z,52.99
2023-04-20T20:51:17.034Z,53.04
2023-04-20T20:53:46.477Z,53.48
2023-04-20T20:56:14.294Z,53.60
2023-04-20T20:58:42.235Z,53.40
2023-04-20T21:01:10.552Z,53.39
2023-04-20T21:03:39.766Z,53.27
2023-04-20T21:06:08.138Z,53.36
2023-04-20T21:08:36.153Z,53.44
2023-04-20T21:11:04.345Z,53.50
2023-04-20T21:13:31.990Z,53.73
2023-04-20T21:15:59.695Z,53.96
2023-04-20T21:18:27.432Z,53.65
2023-04-20T21:20:58.198Z,53.36
2023-04-20T21:23:26.108Z,53.56
2023-04-20T21:25:54.029Z,53.41
2023-04-20T21:28:22.433Z,54.09
2023-04-20T21:30:50.560Z,53.52
2023-04-20T21:33:20.534Z,53.45
2023-04-20T21:35:55.487Z,53.76
2023-04-20T21:38:30.551Z,53.74
2023-04-20T21:41:00.134Z,53.24
2023-04-20T21:43:34.831Z,53.94
2023-04-20T21:46:04.103Z,53.48
2023-04-20T21:48:32.398Z,53.26
2023-04-20T21:51:02.287Z,53.43
2023-04-20T21:53:33.384Z,53.80
2023-04-20T21:56:01.024Z,53.83
2023-04-20T21:58:29.036Z,53.39
2023-04-20T22:00:56.917Z,53.20
2023-04-20T22:03:24.769Z,53.59
2023-04-20T22:05:53.240Z,53.81
2023-04-20T22:08:23.903Z,53.30
2023-04-20T22:10:52.206Z,54.02
2023-04-20T22:13:20.127Z,53.67
2023-04-20T22:15:48.581Z,53.27
2023-04-20T22:18:18.938Z,53.44
2023-04-20T22:20:47.195Z,53.50
2023-04-20T22:23:15.198Z,53.18
2023-04-20T22:25:43.236Z,53.26
2023-04-20T22:28:14.239Z,53.49
2023-04-20T22:30:43.010Z,53.07
2023-04-20T22:33:10.834Z,53.36
2023-04-20T22:35:39.138Z,52.98
2023-04-20T22:38:07.262Z,53.21
2023-04-20T22:40:35.185Z,53.22
2023-04-20T22:43:03.158Z,53.37
2023-04-20T22:45:31.146Z,53.23
2023-04-20T22:47:59.086Z,53.51
2023-04-20T22:50:27.156Z,53.27
2023-04-20T22:52:54.924Z,53.34
2023-04-20T22:55:23.037Z,53.25
2023-04-20T22:57:51.100Z,53.02
2023-04-20T23:00:19.214Z,53.08
2023-04-20T23:02:47.183Z,53.07
2023-04-20T23:05:20.482Z,53.03
2023-04-20T23:07:48.562Z,52.98
2023-04-20T23:10:16.641Z,52.82
2023-04-20T23:12:47.148Z,53.12
2023-04-20T23:15:14.947Z,52.73
2023-04-20T23:17:42.760Z,52.92
2023-04-20T23:20:14.000Z,52.70
2023-04-20T23:22:41.960Z,52.70
2023-04-20T23:25:11.073Z,52.50
2023-04-20T23:27:39.444Z,52.76
2023-04-20T23:30:08.783Z,52.78
2023-04-20T23:32:37.499Z,52.87
2023-04-20T23:35:05.603Z,52.92
2023-04-20T23:37:33.490Z,53.14
2023-04-20T23:40:01.264Z,53.09
2023-04-20T23:42:29.162Z,52.76
2023-04-20T23:44:56.967Z,52.39
2023-04-20T23:47:24.724Z,52.85
2023-04-20T23:49:52.661Z,52.47
2023-04-20T23:52:20.368Z,52.34
2023-04-20T23:54:48.068Z,52.52
2023-04-20T23:57:16.042Z,52.50
2023-04-20T23:59:43.733Z,52.13
